Time;durP1;ratioP1;P1;durP2;ratioP2;P2;SDS_P1;SDS_P2;PMS_P1;PMS_P2;Temp;Humidity;BMP_temperature;BMP_pressure;BME280_temperature;BME280_humidity;BME280_pressure;Samples;Min_cycle;Max_cycle;Signal;HPM_P1;HPM_P2
2024/03/07 00:00:32;;;;;;;37.13;17.35;;;;;;;;;;5020312;28;20034;-80
2024/03/07 00:02:57;;;;;;;46.03;17.65;;;;;;;;;;5011601;28;20113;-80
2024/03/07 00:05:26;;;;;;;52.88;19.13;;;;;;;;;;5027200;28;20054;-79
2024/03/07 00:07:52;;;;;;;43.78;17.90;;;;;;;;;;5001269;28;20053;-78
2024/03/07 00:10:18;;;;;;;42.80;18.35;;;;;;;;;;5005241;28;20041;-78
2024/03/07 00:12:44;;;;;;;45.13;18.67;;;;;;;;;;5016016;28;20029;-80
2024/03/07 00:15:10;;;;;;;45.25;18.88;;;;;;;;;;5024942;28;20381;-80
2024/03/07 00:17:36;;;;;;;43.28;18.58;;;;;;;;;;5008943;28;20369;-78
2024/03/07 00:20:08;;;;;;;51.10;19.67;;;;;;;;;;5024450;28;20030;-80
2024/03/07 00:22:35;;;;;;;45.88;20.13;;;;;;;;;;5010126;28;20049;-80
2024/03/07 00:25:01;;;;;;;51.03;19.15;;;;;;;;;;5018270;28;20366;-80
2024/03/07 00:27:26;;;;;;;41.95;19.38;;;;;;;;;;5005015;28;20056;-80
2024/03/07 00:29:56;;;;;;;51.88;20.67;;;;;;;;;;4993655;28;20045;-79
2024/03/07 00:32:23;;;;;;;48.13;21.17;;;;;;;;;;5013908;28;20033;-81
2024/03/07 00:34:49;;;;;;;51.58;20.67;;;;;;;;;;5001632;28;20105;-79
2024/03/07 00:37:15;;;;;;;55.20;20.63;;;;;;;;;;5026667;28;20122;-80
2024/03/07 00:39:41;;;;;;;45.53;20.15;;;;;;;;;;5006781;28;20089;-80
2024/03/07 00:42:06;;;;;;;54.42;22.10;;;;;;;;;;4995871;28;20083;-79
2024/03/07 00:44:32;;;;;;;55.92;22.13;;;;;;;;;;5030106;28;20017;-79
2024/03/07 00:46:57;;;;;;;59.47;20.88;;;;;;;;;;5018097;28;20126;-80
2024/03/07 00:49:23;;;;;;;52.22;22.33;;;;;;;;;;5019619;28;20525;-79
2024/03/07 00:51:49;;;;;;;52.20;21.10;;;;;;;;;;4992557;28;20042;-80
2024/03/07 00:54:14;;;;;;;58.20;22.13;;;;;;;;;;4999124;28;20441;-79
2024/03/07 00:56:40;;;;;;;53.80;20.63;;;;;;;;;;4993772;28;20060;-79
2024/03/07 00:59:07;;;;;;;55.90;22.75;;;;;;;;;;5005314;28;20037;-80
2024/03/07 01:01:33;;;;;;;53.05;23.02;;;;;;;;;;5037996;28;20091;-80
2024/03/07 01:04:03;;;;;;;54.97;21.70;;;;;;;;;;5016339;28;20535;-80
2024/03/07 01:06:29;;;;;;;62.03;23.17;;;;;;;;;;5004478;28;20041;-81
2024/03/07 01:08:54;;;;;;;52.35;23.08;;;;;;;;;;4998639;28;20041;-80
2024/03/07 01:11:20;;;;;;;55.00;21.95;;;;;;;;;;5011530;28;20038;-80
2024/03/07 01:13:46;;;;;;;57.78;22.02;;;;;;;;;;5040445;28;20037;-81
2024/03/07 01:16:13;;;;;;;55.53;22.50;;;;;;;;;;5034856;28;20022;-79
2024/03/07 01:18:40;;;;;;;60.45;24.15;;;;;;;;;;5013338;28;20499;-79
2024/03/07 01:21:05;;;;;;;62.70;22.13;;;;;;;;;;5003863;28;20029;-80
2024/03/07 01:23:31;;;;;;;55.28;23.02;;;;;;;;;;5048249;28;20021;-80
2024/03/07 01:25:58;;;;;;;62.65;25.10;;;;;;;;;;5014771;28;20100;-80
2024/03/07 01:28:23;;;;;;;59.30;22.92;;;;;;;;;;5037744;28;20013;-79
2024/03/07 01:30:52;;;;;;;64.15;24.27;;;;;;;;;;5041556;28;20025;-79
2024/03/07 01:33:18;;;;;;;;;;;;;;;;;;5026811;28;20014;-80
2024/03/07 01:35:43;;;;;;;62.40;22.77;;;;;;;;;;5059732;28;19909;-80
2024/03/07 01:38:11;;;;;;;67.40;24.90;;;;;;;;;;5057839;28;20071;-79
2024/03/07 01:40:36;;;;;;;63.50;23.92;;;;;;;;;;5047699;28;20033;-81
2024/03/07 01:43:02;;;;;;;73.45;27.10;;;;;;;;;;5035125;28;20182;-80
2024/03/07 01:45:28;;;;;;;67.63;26.77;;;;;;;;;;5002801;28;20026;-80
2024/03/07 01:47:55;;;;;;;65.97;26.55;;;;;;;;;;5037551;28;20468;-80
2024/03/07 01:50:21;;;;;;;66.82;25.90;;;;;;;;;;5014158;28;20539;-80
2024/03/07 01:52:46;;;;;;;66.45;28.38;;;;;;;;;;5015327;28;20059;-81
2024/03/07 01:55:13;;;;;;;76.75;28.45;;;;;;;;;;5023374;28;20095;-80
2024/03/07 01:57:40;;;;;;;70.93;29.08;;;;;;;;;;5029169;28;20045;-81
2024/03/07 02:00:06;;;;;;;72.13;28.25;;;;;;;;;;4992911;28;20084;-80
2024/03/07 02:02:33;;;;;;;69.70;29.92;;;;;;;;;;5025982;28;20059;-80
2024/03/07 02:05:01;;;;;;;71.18;29.63;;;;;;;;;;5027338;28;20034;-81
2024/03/07 02:07:27;;;;;;;66.60;29.15;;;;;;;;;;5018568;28;20117;-79
2024/03/07 02:10:03;;;;;;;70.57;29.85;;;;;;;;;;5011792;28;20036;-79
2024/03/07 02:12:29;;;;;;;71.18;28.67;;;;;;;;;;5032802;28;20124;-79
2024/03/07 02:14:57;;;;;;;71.88;29.92;;;;;;;;;;5019035;28;20053;-80
2024/03/07 02:17:24;;;;;;;67.88;27.60;;;;;;;;;;5005578;28;20152;-79
2024/03/07 02:19:50;;;;;;;67.90;28.75;;;;;;;;;;5026389;28;20033;-80
2024/03/07 02:22:16;;;;;;;67.07;28.50;;;;;;;;;;5014587;28;20057;-80
2024/03/07 02:24:41;;;;;;;68.50;28.15;;;;;;;;;;5016714;28;20029;-79
2024/03/07 02:27:09;;;;;;;73.07;29.08;;;;;;;;;;4993317;28;20040;-79
2024/03/07 02:29:36;;;;;;;61.20;27.38;;;;;;;;;;5034811;28;20041;-78
2024/03/07 02:32:01;;;;;;;64.05;27.27;;;;;;;;;;5029610;28;20030;-80
2024/03/07 02:34:27;;;;;;;65.15;27.60;;;;;;;;;;5014958;28;20116;-79
2024/03/07 02:36:52;;;;;;;63.30;27.13;;;;;;;;;;5010000;28;20030;-80
2024/03/07 02:39:18;;;;;;;64.93;27.67;;;;;;;;;;5026717;28;20021;-79
2024/03/07 02:41:43;;;;;;;60.95;26.35;;;;;;;;;;5021712;28;20036;-79
2024/03/07 02:44:09;;;;;;;64.78;26.88;;;;;;;;;;5005099;28;20112;-79
2024/03/07 02:46:34;;;;;;;56.63;25.02;;;;;;;;;;5016844;28;20131;-81
2024/03/07 02:49:00;;;;;;;65.88;26.73;;;;;;;;;;5018078;28;20123;-81
2024/03/07 02:51:26;;;;;;;59.88;26.30;;;;;;;;;;5018142;28;20473;-79
2024/03/07 02:53:51;;;;;;;55.03;25.63;;;;;;;;;;5016803;28;20025;-80
2024/03/07 02:56:17;;;;;;;54.28;24.73;;;;;;;;;;4990630;28;20109;-79
2024/03/07 02:58:42;;;;;;;51.53;24.50;;;;;;;;;;5004577;28;20345;-81
2024/03/07 03:01:09;;;;;;;53.70;25.33;;;;;;;;;;5014377;28;20111;-80
2024/03/07 03:03:34;;;;;;;54.38;25.52;;;;;;;;;;5031746;28;20465;-80
2024/03/07 03:06:00;;;;;;;56.42;24.80;;;;;;;;;;5040576;28;20037;-80
2024/03/07 03:08:28;;;;;;;52.03;23.83;;;;;;;;;;5022401;28;20056;-81
2024/03/07 03:10:54;;;;;;;55.95;24.25;;;;;;;;;;5012059;28;20040;-81
2024/03/07 03:13:20;;;;;;;50.13;23.00;;;;;;;;;;5044019;28;20057;-80
2024/03/07 03:15:45;;;;;;;55.35;23.98;;;;;;;;;;5014783;28;20035;-80
2024/03/07 03:18:12;;;;;;;56.90;25.00;;;;;;;;;;4994807;28;20036;-79
2024/03/07 03:20:42;;;;;;;61.83;25.80;;;;;;;;;;4999544;28;20515;-79
2024/03/07 03:23:13;;;;;;;58.03;25.83;;;;;;;;;;5018688;28;20369;-79
2024/03/07 03:25:39;;;;;;;59.70;25.50;;;;;;;;;;5012940;28;20401;-81
2024/03/07 03:28:05;;;;;;;64.28;26.40;;;;;;;;;;5015377;28;20109;-79
2024/03/07 03:30:32;;;;;;;63.55;25.25;;;;;;;;;;5027128;28;20045;-79
2024/03/07 03:32:58;;;;;;;69.85;27.73;;;;;;;;;;5009514;28;20116;-79
2024/03/07 03:35:24;;;;;;;60.15;26.92;;;;;;;;;;5008812;28;20065;-80
2024/03/07 03:37:49;;;;;;;61.33;26.05;;;;;;;;;;5001912;28;20037;-81
2024/03/07 03:40:15;;;;;;;64.03;26.52;;;;;;;;;;5011152;28;20025;-78
2024/03/07 03:42:41;;;;;;;67.13;26.63;;;;;;;;;;5031877;28;20018;-79
2024/03/07 03:45:07;;;;;;;66.90;27.88;;;;;;;;;;5010906;28;20026;-80
2024/03/07 03:47:34;;;;;;;63.67;26.15;;;;;;;;;;5024576;28;20033;-80
2024/03/07 03:49:59;;;;;;;62.72;25.85;;;;;;;;;;5046577;28;20029;-79
2024/03/07 03:52:26;;;;;;;69.05;26.48;;;;;;;;;;5033259;28;20044;-80
2024/03/07 03:54:51;;;;;;;66.70;27.23;;;;;;;;;;5041982;28;20030;-79
2024/03/07 03:57:18;;;;;;;63.40;27.67;;;;;;;;;;5025539;28;20167;-81
2024/03/07 03:59:44;;;;;;;59.17;24.13;;;;;;;;;;5014993;28;20392;-79
2024/03/07 04:02:10;;;;;;;69.85;26.98;;;;;;;;;;5003428;28;20026;-80
2024/03/07 04:04:39;;;;;;;65.38;27.40;;;;;;;;;;5009415;28;20042;-79
2024/03/07 04:07:05;;;;;;;;;;;;;;;;;;5013114;28;20052;-79
2024/03/07 04:09:31;;;;;;;59.40;23.90;;;;;;;;;;4998488;28;20288;-80
2024/03/07 04:11:57;;;;;;;58.30;24.23;;;;;;;;;;5010224;28;20041;-80
2024/03/07 04:14:23;;;;;;;57.85;24.15;;;;;;;;;;5026987;28;20392;-79
2024/03/07 04:16:48;;;;;;;54.65;24.33;;;;;;;;;;4986806;28;20034;-78
2024/03/07 04:19:15;;;;;;;61.55;24.50;;;;;;;;;;5016643;28;20401;-80
2024/03/07 04:21:41;;;;;;;50.30;23.80;;;;;;;;;;5036706;28;20037;-80
2024/03/07 04:24:07;;;;;;;57.72;23.35;;;;;;;;;;5002269;28;20040;-79
2024/03/07 04:26:32;;;;;;;53.25;23.30;;;;;;;;;;5023813;28;20021;-80
2024/03/07 04:29:25;;;;;;;66.32;23.23;;;;;;;;;;5022390;28;20017;-80
2024/03/07 04:31:52;;;;;;;57.40;22.67;;;;;;;;;;5033292;28;20025;-80
2024/03/07 04:34:18;;;;;;;56.10;21.35;;;;;;;;;;5018926;28;20034;-80
2024/03/07 04:36:44;;;;;;;51.35;22.55;;;;;;;;;;5064529;28;20481;-80
2024/03/07 04:39:22;;;;;;;52.80;22.50;;;;;;;;;;5022289;28;20030;-79
2024/03/07 04:41:48;;;;;;;53.60;22.17;;;;;;;;;;5010694;28;20044;-79
2024/03/07 04:44:13;;;;;;;50.50;21.48;;;;;;;;;;4991983;28;20034;-80
2024/03/07 04:46:42;;;;;;;52.55;22.25;;;;;;;;;;5002349;28;20517;-79
2024/03/07 04:49:08;;;;;;;48.28;20.13;;;;;;;;;;5008798;28;20029;-80
2024/03/07 04:51:35;;;;;;;52.75;22.75;;;;;;;;;;5019953;28;20036;-81
2024/03/07 04:54:01;;;;;;;59.78;23.80;;;;;;;;;;4989097;28;20041;-80
2024/03/07 04:56:26;;;;;;;59.92;24.05;;;;;;;;;;5029010;28;20033;-80
2024/03/07 04:58:53;;;;;;;46.75;19.85;;;;;;;;;;5009592;28;20054;-79
2024/03/07 05:01:20;;;;;;;45.95;22.08;;;;;;;;;;4994447;28;20065;-80
2024/03/07 05:03:45;;;;;;;47.55;21.08;;;;;;;;;;4992434;28;20087;-81
2024/03/07 05:06:11;;;;;;;53.08;21.58;;;;;;;;;;5006558;28;20366;-80
2024/03/07 05:08:36;;;;;;;44.53;20.25;;;;;;;;;;5020411;28;20026;-80
2024/03/07 05:11:02;;;;;;;49.25;22.95;;;;;;;;;;5020919;28;20029;-80
2024/03/07 05:13:27;;;;;;;51.15;22.08;;;;;;;;;;5020481;28;20120;-79
2024/03/07 05:15:53;;;;;;;47.75;21.85;;;;;;;;;;5020759;28;20093;-79
2024/03/07 05:18:18;;;;;;;45.40;20.90;;;;;;;;;;5036796;28;20029;-80
2024/03/07 05:20:44;;;;;;;48.97;22.05;;;;;;;;;;5028245;28;20038;-80
2024/03/07 05:23:10;;;;;;;46.95;21.98;;;;;;;;;;5012790;28;20520;-79
2024/03/07 05:25:40;;;;;;;39.67;22.08;;;;;;;;;;5012432;28;20435;-80
2024/03/07 05:28:05;;;;;;;48.90;21.73;;;;;;;;;;5014199;28;20053;-80
2024/03/07 05:30:32;;;;;;;45.30;21.17;;;;;;;;;;5029257;28;20030;-80
2024/03/07 05:32:58;;;;;;;38.20;20.33;;;;;;;;;;5023498;28;20112;-79
2024/03/07 05:35:24;;;;;;;39.42;20.75;;;;;;;;;;5035532;28;20025;-79
2024/03/07 05:37:56;;;;;;;39.25;20.92;;;;;;;;;;5023718;28;20237;-79
2024/03/07 05:40:22;;;;;;;39.15;19.60;;;;;;;;;;5039179;28;20025;-80
2024/03/07 05:42:48;;;;;;;38.22;20.52;;;;;;;;;;5050303;28;20037;-79
2024/03/07 05:45:17;;;;;;;37.45;18.95;;;;;;;;;;5037381;28;20026;-80
2024/03/07 05:47:47;;;;;;;48.58;23.45;;;;;;;;;;5025936;28;20033;-80
2024/03/07 05:50:14;;;;;;;37.58;19.38;;;;;;;;;;5037945;28;20068;-81
2024/03/07 05:52:42;;;;;;;48.22;19.88;;;;;;;;;;5015190;28;20033;-79
2024/03/07 05:55:11;;;;;;;38.70;20.25;;;;;;;;;;5018229;28;20045;-79
2024/03/07 05:57:36;;;;;;;;;;;;;;;;;;5027242;28;20386;-82
2024/03/07 06:00:11;;;;;;;40.90;19.50;;;;;;;;;;5018861;28;20330;-80
2024/03/07 06:02:41;;;;;;;39.28;20.40;;;;;;;;;;5006092;28;20045;-81
2024/03/07 06:05:15;;;;;;;46.28;21.23;;;;;;;;;;5026006;28;20021;-81
2024/03/07 06:07:45;;;;;;;46.90;20.70;;;;;;;;;;5016216;28;20400;-79
2024/03/07 06:10:11;;;;;;;;;;;;;;;;;;5035354;28;20087;-80
2024/03/07 06:12:40;;;;;;;38.05;19.60;;;;;;;;;;5033054;28;19909;-79
2024/03/07 06:15:13;;;;;;;37.78;19.50;;;;;;;;;;4979094;28;20038;-81
2024/03/07 06:17:38;;;;;;;42.70;19.90;;;;;;;;;;5049954;28;20037;-80
2024/03/07 06:20:07;;;;;;;42.78;22.13;;;;;;;;;;5029455;28;20076;-80
2024/03/07 06:22:33;;;;;;;42.78;20.58;;;;;;;;;;5002218;28;20022;-78
2024/03/07 06:25:06;;;;;;;39.22;19.92;;;;;;;;;;5026440;28;20520;-79
2024/03/07 06:27:38;;;;;;;35.05;18.77;;;;;;;;;;5015099;28;20484;-81
2024/03/07 06:30:03;;;;;;;44.58;22.88;;;;;;;;;;5011662;28;20034;-80
2024/03/07 06:32:33;;;;;;;43.45;21.65;;;;;;;;;;5026719;28;20044;-81
2024/03/07 06:35:01;;;;;;;37.08;19.17;;;;;;;;;;5019256;28;20038;-79
2024/03/07 06:37:26;;;;;;;43.40;20.33;;;;;;;;;;5033082;28;20029;-79
2024/03/07 06:39:53;;;;;;;40.80;20.30;;;;;;;;;;4998826;28;20034;-79
2024/03/07 06:42:18;;;;;;;40.60;19.40;;;;;;;;;;5013143;28;20132;-80
2024/03/07 06:44:44;;;;;;;36.33;20.20;;;;;;;;;;5034389;28;20096;-80
2024/03/07 06:47:09;;;;;;;35.60;18.55;;;;;;;;;;5005323;28;20405;-80
2024/03/07 06:49:56;;;;;;;44.05;19.80;;;;;;;;;;5026014;28;20504;-78
2024/03/07 06:52:27;;;;;;;42.15;20.05;;;;;;;;;;5012825;28;20038;-80
2024/03/07 06:54:53;;;;;;;36.65;19.58;;;;;;;;;;5034568;28;20029;-79
2024/03/07 06:57:20;;;;;;;38.88;20.52;;;;;;;;;;5037020;28;20412;-80
2024/03/07 06:59:55;;;;;;;50.28;21.10;;;;;;;;;;5011591;28;20056;-80
2024/03/07 07:02:20;;;;;;;39.83;20.08;;;;;;;;;;5033989;28;20663;-80
2024/03/07 07:04:47;;;;;;;40.13;18.98;;;;;;;;;;5035285;28;20057;-81
2024/03/07 07:07:13;;;;;;;36.75;18.52;;;;;;;;;;5035037;28;20033;-80
2024/03/07 07:09:39;;;;;;;32.85;16.95;;;;;;;;;;5000648;28;20041;-80
2024/03/07 07:12:05;;;;;;;37.35;18.30;;;;;;;;;;5004842;28;20033;-80
2024/03/07 07:14:38;;;;;;;38.28;18.67;;;;;;;;;;5045733;28;20072;-80
2024/03/07 07:17:05;;;;;;;33.45;18.90;;;;;;;;;;5030542;28;20036;-81
2024/03/07 07:19:32;;;;;;;36.38;17.88;;;;;;;;;;5041190;28;20022;-79
2024/03/07 07:21:57;;;;;;;38.50;17.02;;;;;;;;;;5034573;28;20020;-79
2024/03/07 07:24:24;;;;;;;38.75;17.25;;;;;;;;;;5052991;28;20037;-80
2024/03/07 07:26:52;;;;;;;33.40;16.45;;;;;;;;;;5058280;28;20017;-80
2024/03/07 07:29:29;;;;;;;35.92;18.63;;;;;;;;;;5039341;28;20033;-80
2024/03/07 07:31:57;;;;;;;33.08;17.05;;;;;;;;;;5056330;28;20029;-81
2024/03/07 07:34:26;;;;;;;32.60;15.75;;;;;;;;;;5041149;28;20044;-79
2024/03/07 07:36:59;;;;;;;31.73;15.43;;;;;;;;;;5004739;28;20042;-81
2024/03/07 07:39:26;;;;;;;30.60;15.43;;;;;;;;;;5011704;28;20053;-81
2024/03/07 07:41:51;;;;;;;28.85;13.98;;;;;;;;;;5008289;28;20088;-82
2024/03/07 07:44:19;;;;;;;36.38;16.75;;;;;;;;;;5009425;28;20045;-81
2024/03/07 07:46:46;;;;;;;39.00;16.60;;;;;;;;;;5025774;28;20041;-81
2024/03/07 07:49:15;;;;;;;32.80;14.13;;;;;;;;;;4998145;28;20037;-79
2024/03/07 07:51:41;;;;;;;34.08;13.68;;;;;;;;;;5033775;28;20270;-79
2024/03/07 07:54:09;;;;;;;26.70;13.60;;;;;;;;;;5018319;28;20048;-80
2024/03/07 07:56:35;;;;;;;24.52;12.07;;;;;;;;;;5005495;28;20033;-81
2024/03/07 07:59:01;;;;;;;27.05;13.23;;;;;;;;;;5015219;28;20033;-81
2024/03/07 08:01:27;;;;;;;25.52;11.35;;;;;;;;;;5010004;28;20029;-82
2024/03/07 08:03:52;;;;;;;24.30;11.95;;;;;;;;;;5034006;28;20259;-81
2024/03/07 08:06:18;;;;;;;28.15;12.35;;;;;;;;;;5002033;28;20044;-78
2024/03/07 08:08:44;;;;;;;26.42;11.25;;;;;;;;;;5032694;28;20033;-81
2024/03/07 08:11:11;;;;;;;22.38;10.27;;;;;;;;;;5014279;28;20105;-80
2024/03/07 08:13:37;;;;;;;21.02;9.68;;;;;;;;;;5021220;28;20032;-79
2024/03/07 08:16:05;;;;;;;23.02;9.80;;;;;;;;;;5031476;28;20021;-79
2024/03/07 08:18:38;;;;;;;18.52;9.63;;;;;;;;;;5021836;28;20029;-79
2024/03/07 08:21:04;;;;;;;19.27;9.60;;;;;;;;;;4999803;28;20056;-79
2024/03/07 08:23:31;;;;;;;19.63;9.77;;;;;;;;;;5034448;28;20400;-80
2024/03/07 08:26:02;;;;;;;27.10;10.63;;;;;;;;;;5008594;28;20042;-80
2024/03/07 08:28:33;;;;;;;19.38;10.48;;;;;;;;;;5025093;28;20061;-80
2024/03/07 08:30:59;;;;;;;24.30;10.20;;;;;;;;;;5038117;28;20091;-80
2024/03/07 08:33:25;;;;;;;23.60;9.43;;;;;;;;;;5037607;28;20029;-79
2024/03/07 08:35:52;;;;;;;22.77;10.68;;;;;;;;;;5007153;28;20064;-80
2024/03/07 08:38:18;;;;;;;23.67;12.63;;;;;;;;;;5018147;28;20067;-79
2024/03/07 08:40:45;;;;;;;33.53;15.90;;;;;;;;;;5028420;28;20052;-81
2024/03/07 08:43:10;;;;;;;21.27;11.10;;;;;;;;;;5025538;28;20060;-80
2024/03/07 08:45:36;;;;;;;21.00;9.98;;;;;;;;;;5027582;28;20025;-81
2024/03/07 08:48:03;;;;;;;19.80;10.13;;;;;;;;;;5026274;28;20081;-81
2024/03/07 08:50:29;;;;;;;18.50;9.68;;;;;;;;;;5016709;28;20037;-80
2024/03/07 08:53:01;;;;;;;20.38;9.32;;;;;;;;;;5032305;28;20060;-81
2024/03/07 08:55:28;;;;;;;17.42;8.70;;;;;;;;;;5036740;28;20018;-81
2024/03/07 08:57:59;;;;;;;18.30;8.07;;;;;;;;;;5000606;28;20030;-80
2024/03/07 09:00:28;;;;;;;20.15;8.77;;;;;;;;;;5029514;28;20037;-82
2024/03/07 09:02:58;;;;;;;18.52;8.70;;;;;;;;;;5009593;28;20025;-79
2024/03/07 09:05:26;;;;;;;16.73;8.48;;;;;;;;;;5031656;28;20030;-81
2024/03/07 09:07:53;;;;;;;17.45;7.97;;;;;;;;;;5017194;28;20037;-81
2024/03/07 09:10:19;;;;;;;20.85;8.45;;;;;;;;;;5014285;28;20026;-80
2024/03/07 09:12:45;;;;;;;17.40;8.07;;;;;;;;;;5014219;28;20053;-81
2024/03/07 09:15:11;;;;;;;18.00;8.45;;;;;;;;;;5003945;28;20242;-82
2024/03/07 09:17:37;;;;;;;21.90;8.80;;;;;;;;;;5017590;28;20032;-81
2024/03/07 09:20:06;;;;;;;18.38;8.70;;;;;;;;;;5009097;28;20059;-81
2024/03/07 09:22:32;;;;;;;;;;;;;;;;;;5008339;28;20057;-82
2024/03/07 09:24:59;;;;;;;16.02;6.63;;;;;;;;;;5001211;28;19932;-81
2024/03/07 09:27:26;;;;;;;14.60;7.53;;;;;;;;;;5017568;28;20473;-82
2024/03/07 09:29:57;;;;;;;18.27;7.93;;;;;;;;;;5015653;28;20488;-80
2024/03/07 09:32:32;;;;;;;;;;;;;;;;;;5024496;28;20042;-80
2024/03/07 09:35:01;;;;;;;15.75;7.22;;;;;;;;;;5017809;28;19912;-79
2024/03/07 09:37:27;;;;;;;17.20;7.55;;;;;;;;;;5024771;28;20101;-79
2024/03/07 09:39:55;;;;;;;14.70;7.30;;;;;;;;;;4999857;28;20025;-81
2024/03/07 09:42:23;;;;;;;15.85;7.72;;;;;;;;;;5006046;28;20038;-80
2024/03/07 09:44:50;;;;;;;21.42;8.02;;;;;;;;;;5035893;28;20465;-81
2024/03/07 09:47:16;;;;;;;13.68;7.03;;;;;;;;;;5035341;28;20038;-80
2024/03/07 09:49:45;;;;;;;18.65;7.70;;;;;;;;;;4997231;28;20466;-81
2024/03/07 09:52:17;;;;;;;14.45;7.28;;;;;;;;;;5020154;28;20456;-82
2024/03/07 09:54:44;;;;;;;16.23;6.68;;;;;;;;;;4991313;28;20042;-80
2024/03/07 09:57:11;;;;;;;15.30;7.25;;;;;;;;;;5004325;28;20033;-80
2024/03/07 09:59:39;;;;;;;17.70;8.52;;;;;;;;;;5013719;28;20036;-81
2024/03/07 10:02:08;;;;;;;;;;;;;;;;;;4989264;28;20045;-81
2024/03/07 10:04:43;;;;;;;15.50;8.05;;;;;;;;;;5020230;28;19909;-81
2024/03/07 10:07:13;;;;;;;26.75;9.60;;;;;;;;;;5034795;28;20039;-80
2024/03/07 10:09:41;;;;;;;14.15;7.75;;;;;;;;;;4997948;28;20030;-81
2024/03/07 10:12:18;;;;;;;18.00;8.27;;;;;;;;;;5016394;28;20505;-81
2024/03/07 10:14:57;;;;;;;20.65;8.68;;;;;;;;;;5007993;28;20046;-82
2024/03/07 10:17:31;;;;;;;19.90;9.27;;;;;;;;;;5040202;28;20053;-81
2024/03/07 10:20:00;;;;;;;20.00;9.20;;;;;;;;;;5052869;28;20026;-80
2024/03/07 10:22:32;;;;;;;22.67;9.07;;;;;;;;;;5036097;28;20017;-80
2024/03/07 10:24:59;;;;;;;20.88;9.13;;;;;;;;;;5033552;28;20021;-80
2024/03/07 10:27:27;;;;;;;17.23;8.07;;;;;;;;;;5040757;28;20091;-79
2024/03/07 10:29:53;;;;;;;20.00;8.57;;;;;;;;;;5054702;28;20049;-80
2024/03/07 10:32:20;;;;;;;17.33;8.88;;;;;;;;;;5057842;28;20029;-80
2024/03/07 10:34:48;;;;;;;22.15;9.43;;;;;;;;;;5040827;28;20026;-82
2024/03/07 10:37:17;;;;;;;15.80;8.60;;;;;;;;;;5041249;28;20051;-81
2024/03/07 10:39:45;;;;;;;16.63;8.85;;;;;;;;;;5016154;28;20033;-80
2024/03/07 10:42:36;;;;;;;18.92;9.05;;;;;;;;;;5022562;28;20070;-81
2024/03/07 10:45:06;;;;;;;18.60;7.93;;;;;;;;;;5034115;28;20434;-81
2024/03/07 10:47:39;;;;;;;17.90;8.35;;;;;;;;;;5031810;28;20037;-80
2024/03/07 10:50:28;;;;;;;17.52;8.40;;;;;;;;;;5008602;28;20036;-80
2024/03/07 10:53:09;;;;;;;19.63;8.27;;;;;;;;;;5006092;28;20420;-82
2024/03/07 10:55:40;;;;;;;15.70;8.73;;;;;;;;;;5006592;28;20033;-82
2024/03/07 10:58:14;;;;;;;15.68;8.50;;;;;;;;;;5026452;28;20436;-82
2024/03/07 11:00:45;;;;;;;20.98;9.23;;;;;;;;;;5018387;28;20109;-82
2024/03/07 11:03:11;;;;;;;17.55;9.02;;;;;;;;;;5027038;28;20028;-82
2024/03/07 11:05:39;;;;;;;17.50;9.45;;;;;;;;;;5026834;28;20047;-81
2024/03/07 11:08:11;;;;;;;23.65;9.05;;;;;;;;;;5014839;28;20033;-81
2024/03/07 11:10:37;;;;;;;16.17;8.27;;;;;;;;;;5011429;28;20025;-82
2024/03/07 11:13:11;;;;;;;15.93;8.75;;;;;;;;;;5031244;28;20072;-81
2024/03/07 11:15:39;;;;;;;18.70;8.90;;;;;;;;;;5048490;28;20037;-81
2024/03/07 11:18:08;;;;;;;16.20;9.25;;;;;;;;;;5034046;28;20512;-80
2024/03/07 11:20:34;;;;;;;16.88;9.48;;;;;;;;;;5020767;28;20028;-82
2024/03/07 11:23:02;;;;;;;18.42;9.13;;;;;;;;;;5028610;28;20024;-80
2024/03/07 11:25:29;;;;;;;19.98;9.18;;;;;;;;;;5021301;28;20032;-81
2024/03/07 11:27:55;;;;;;;17.48;9.25;;;;;;;;;;5003817;28;20055;-80
2024/03/07 11:30:22;;;;;;;20.50;8.90;;;;;;;;;;5029818;28;20022;-81
2024/03/07 11:32:50;;;;;;;16.88;8.52;;;;;;;;;;5021372;28;20040;-80
2024/03/07 11:35:25;;;;;;;20.55;8.63;;;;;;;;;;5007530;28;20036;-81
2024/03/07 11:38:00;;;;;;;17.73;9.13;;;;;;;;;;5009395;28;20033;-83
2024/03/07 11:40:26;;;;;;;14.38;7.82;;;;;;;;;;5004899;28;20057;-81
2024/03/07 11:42:52;;;;;;;20.38;9.75;;;;;;;;;;5009268;28;20044;-81
2024/03/07 11:45:25;;;;;;;20.45;9.35;;;;;;;;;;5004136;28;20030;-80
2024/03/07 11:48:00;;;;;;;18.23;9.57;;;;;;;;;;5031553;28;20044;-80
2024/03/07 11:50:26;;;;;;;20.92;9.20;;;;;;;;;;5042525;28;20044;-82
2024/03/07 11:52:52;;;;;;;19.58;9.30;;;;;;;;;;5005669;28;20125;-80
2024/03/07 11:55:21;;;;;;;17.00;9.40;;;;;;;;;;5030358;28;20102;-80
2024/03/07 11:57:47;;;;;;;19.45;9.25;;;;;;;;;;5014859;28;20026;-81
2024/03/07 12:00:16;;;;;;;17.13;9.10;;;;;;;;;;5023087;28;20126;-81
2024/03/07 12:02:45;;;;;;;20.25;9.88;;;;;;;;;;5017407;28;20084;-82
2024/03/07 12:05:15;;;;;;;14.75;8.80;;;;;;;;;;5035738;28;20052;-81
2024/03/07 12:07:42;;;;;;;19.38;9.93;;;;;;;;;;5022656;28;20481;-82
2024/03/07 12:10:10;;;;;;;17.40;9.55;;;;;;;;;;5020528;28;20037;-81
2024/03/07 12:12:39;;;;;;;19.05;9.15;;;;;;;;;;5022255;28;20108;-81
2024/03/07 12:15:20;;;;;;;16.58;10.25;;;;;;;;;;5016547;28;20025;-80
2024/03/07 12:17:57;;;;;;;19.95;9.88;;;;;;;;;;5016081;28;20059;-80
2024/03/07 12:20:33;;;;;;;18.23;9.80;;;;;;;;;;5016092;28;20041;-81
2024/03/07 12:23:02;;;;;;;19.90;10.45;;;;;;;;;;5033226;28;20030;-79
2024/03/07 12:25:29;;;;;;;23.52;10.07;;;;;;;;;;5034228;28;20412;-80
2024/03/07 12:28:25;;;;;;;19.10;9.52;;;;;;;;;;5034984;28;20038;-82
2024/03/07 12:30:50;;;;;;;21.35;10.95;;;;;;;;;;5035722;28;20105;-82
2024/03/07 12:33:18;;;;;;;16.92;10.25;;;;;;;;;;5021232;28;20041;-80
2024/03/07 12:35:44;;;;;;;23.80;11.23;;;;;;;;;;5045296;28;20040;-81
2024/03/07 12:38:15;;;;;;;23.08;11.07;;;;;;;;;;5029079;28;20041;-81
2024/03/07 12:40:41;;;;;;;19.73;11.00;;;;;;;;;;5020545;28;20029;-80
2024/03/07 12:43:17;;;;;;;20.63;11.43;;;;;;;;;;4995037;28;20059;-80
2024/03/07 12:45:43;;;;;;;20.55;10.18;;;;;;;;;;5015721;28;20024;-81
2024/03/07 12:48:14;;;;;;;20.67;10.05;;;;;;;;;;5038499;28;20081;-80
2024/03/07 12:50:40;;;;;;;15.13;8.52;;;;;;;;;;5001168;28;20102;-81
2024/03/07 12:53:11;;;;;;;18.27;9.48;;;;;;;;;;5027530;28;20396;-81
2024/03/07 12:55:42;;;;;;;18.45;9.93;;;;;;;;;;5029165;28;20435;-80
2024/03/07 12:58:11;;;;;;;17.50;9.07;;;;;;;;;;5027752;28;20029;-80
2024/03/07 13:00:43;;;;;;;17.75;9.27;;;;;;;;;;5025946;28;20049;-80
2024/03/07 13:03:14;;;;;;;16.15;9.02;;;;;;;;;;5022440;28;20060;-81
2024/03/07 13:05:40;;;;;;;16.80;8.07;;;;;;;;;;5006528;28;20384;-80
2024/03/07 13:08:13;;;;;;;21.70;9.02;;;;;;;;;;5016300;28;20152;-81
2024/03/07 13:10:39;;;;;;;19.05;9.50;;;;;;;;;;5024903;28;20393;-81
2024/03/07 13:13:07;;;;;;;20.38;10.02;;;;;;;;;;5030022;28;20053;-80
2024/03/07 13:15:32;;;;;;;19.30;10.07;;;;;;;;;;5023215;28;20026;-81
2024/03/07 13:17:58;;;;;;;15.25;9.30;;;;;;;;;;5027590;28;20037;-80
2024/03/07 13:20:26;;;;;;;21.92;9.02;;;;;;;;;;5054484;28;20029;-80
2024/03/07 13:22:52;;;;;;;20.98;9.98;;;;;;;;;;5041846;28;20038;-80
2024/03/07 13:25:24;;;;;;;15.45;9.27;;;;;;;;;;5026119;28;20041;-80
2024/03/07 13:28:13;;;;;;;18.40;10.40;;;;;;;;;;5050256;28;20048;-80
2024/03/07 13:30:41;;;;;;;20.52;10.40;;;;;;;;;;5042813;28;20087;-81
2024/03/07 13:33:07;;;;;;;19.40;10.20;;;;;;;;;;5042307;28;20022;-80
2024/03/07 13:35:35;;;;;;;20.13;10.77;;;;;;;;;;5041486;28;20017;-81
2024/03/07 13:38:03;;;;;;;18.80;10.68;;;;;;;;;;5038782;28;20029;-80
2024/03/07 13:40:40;;;;;;;19.85;10.30;;;;;;;;;;5040111;28;20028;-79
2024/03/07 13:43:09;;;;;;;21.30;11.00;;;;;;;;;;5059697;28;20028;-79
2024/03/07 13:45:40;;;;;;;20.05;9.80;;;;;;;;;;5016817;28;20025;-80
2024/03/07 13:48:06;;;;;;;19.65;11.10;;;;;;;;;;5028799;28;20045;-80
2024/03/07 13:50:33;;;;;;;19.58;10.48;;;;;;;;;;5005612;28;20022;-80
2024/03/07 13:53:28;;;;;;;17.15;10.98;;;;;;;;;;5041266;28;20029;-79
2024/03/07 13:56:07;;;;;;;24.58;10.82;;;;;;;;;;5022075;28;20030;-79
2024/03/07 13:58:33;;;;;;;;;;;;;;;;;;5027213;28;20036;-80
2024/03/07 14:01:20;;;;;;;18.52;9.93;;;;;;;;;;5023541;28;19939;-80
2024/03/07 14:04:01;;;;;;;16.70;10.02;;;;;;;;;;5038998;28;20073;-80
2024/03/07 14:06:48;;;;;;;18.75;11.07;;;;;;;;;;5035005;28;20033;-80
2024/03/07 14:09:25;;;;;;;22.15;10.60;;;;;;;;;;5005847;28;20041;-82
2024/03/07 14:12:11;;;;;;;18.33;10.35;;;;;;;;;;5022032;28;20118;-81
2024/03/07 14:14:43;;;;;;;;;;;;;;;;;;5024350;28;20078;-79
2024/03/07 14:17:24;;;;;;;21.80;10.90;;;;;;;;;;5037325;28;19921;-79
2024/03/07 14:19:55;;;;;;;22.25;11.68;;;;;;;;;;5033991;28;20160;-80
2024/03/07 14:22:41;;;;;;;23.23;9.68;;;;;;;;;;5053276;28;20045;-81
2024/03/07 14:25:21;;;;;;;19.13;9.15;;;;;;;;;;5039921;28;20100;-80
2024/03/07 14:28:10;;;;;;;16.83;9.80;;;;;;;;;;5024396;28;20068;-79
2024/03/07 14:30:35;;;;;;;;;;;;;;;;;;5040707;28;20034;-79